MMZO 090140Z 02006KT 8SM SKC 25/20 A2984= 090140

MMZO 090040Z 12006KT 8SM SKC 26/22 A2984= 090041

MMZO 082340Z 15008KT 12SM SKC 29/23 A2983 RMK SLP084= 082341

MMZO 082240Z 15008KT 12SM SKC 29/24 A2984= 082240

MMZO 082140Z 18010KT 12SM SKC 30/24 A2984= 082140

MMZO 082053Z 15010KT 12SM SKC 30/24 A2984= 082053

MMZO 081943Z 15010KT 10SM SKC 30/25 A2990= 081943

MMZO 081742Z 18010KT 10SM SKC 28/23 A2990= 081743

MMZO 081647Z 00000KT 10SM SKC 27/22 A2990= 081647

MMZO 081545Z 00000KT 10SM SKC 24/19 A2996= 081545

MMZO 081446Z 00000KT 10SM SKC 21/19 A2986= 081446

MMZO 081346Z 00000KT 10SM SKC 19/12 A2984= 081347

MMZO 081249Z 01008KT 12SM SKC 19/12 A2984 RMK RTS= 081250

MMZO 080240Z 00000KT 15SM SKC 24/18 A2980= 080240

MMZO 080040Z 36006KT 15SM SKC 27/22 A2980= 080040

MMZO 072346Z 28010KT 15SM SKC 29/23 A2980 RMK SLP074= 072346

MMZO 072240Z 25015KT 15SM SKC 31/25 A2980= 072241

MMZO 072140Z 25015KT 12SM SKC 31/25 A2980= 072140

MMZO 072040Z 25015KT 15SM SKC 31/25 A2980= 072041

MMZO 071943Z 21010KT 10SM SKC 29/24 A2980= 071943

MMZO 071841Z 21010KT 10SM SKC 29/24 A2990= 071841

MMZO 071746Z 00000KT 10SM SKC 28/23 A2990= 071747

MMZO 071640Z 21010KT 10SM SKC 27/22 A2988= 071640

MMZO 071546Z 00000KT 10SM SKC 26/21 A2986= 071546

MMZO 071441Z 00000KT 10SM SKC 23/18 A2986= 071441

MMZO 071400Z RTD 00000KT 10SM SKC 22/18 A2988= 071401

MMZO 071253Z 03006KT 10SM SKC 21/19 A2984 RMK RTS= 071254

MMZO 070140Z 36006KT 12SM FEW250 25/20 A2986 RMK 8/004= 070140

MMZO 070040Z 33006KT 10SM FEW250 26/20 A2986 RMK 8/004= 070041

MMZO 062340Z 30010KT 12SM FEW250 29/24 A2985 RMK SLP074 8/004= 062341

MMZO 062240Z 25010KT 12SM FEW020 29/24 A2984 RMK 8/100= 062240

MMZO 062140Z 24010KT 12SM FEW020 30/25 A2985 RMK 8/100= 062140

MMZO 062040Z 27010KT 12SM FEW020 30/24 A2986 RMK 8/100= 062041

MMZO 061940Z 25010KT 12SM FEW250 31/25 A2990 RMK 8/004= 061940

MMZO 061840Z 24010KT 12SM FEW250 30/24 A2994 RMK 8/004= 061841

MMZO 061740Z 24010KT 12SM FEW250 30/24 A2994 RMK SLP084 8/006= 061740

MMZO 061640Z 33006KT 15SM FEW250 29/24 A2995 RMK 8/004= 061640

MMZO 061540Z 36006KT 12SM FEW250 27/22 A2995 RMK 8/004= 061540

MMZO 061440Z 36006KT 12SM FEW250 25/20 A2992 RMK 8/004= 061440

MMZO 061348Z 36006KT 12SM FEW250 21/17 A2992 RMK 8/004 RTS= 061349

MMZO 060241Z 00000KT 10SM SKC 28/23 A2984= 060242